Terminal Aerodrome Forecast
Issued by NWS

Home | Current Version | Previous Version | Text Only | Print | Product List | Glossary On
Versions: 1 2 3 4 5 6 7 8 9 10 11 12
792
FTUS46 KSGX 191152
TAFTRM
TAF
KTRM 191152Z 1912/2012 VRB06KT P6SM BKN100
     FM192000 VRB06KT P6SM VCSH BKN080
     FM192300 32012G20KT P6SM VCSH BKN100
     FM200700 32007KT P6SM BKN200=

USA.gov is the U.S. government's official web portal to all federal, state and local government web resources and services.